Time;durP1;ratioP1;P1;durP2;ratioP2;P2;SDS_P1;SDS_P2;PMS_P1;PMS_P2;Temp;Humidity;BMP_temperature;BMP_pressure;BME280_temperature;BME280_humidity;BME280_pressure;Samples;Min_cycle;Max_cycle;Signal;HPM_P1;HPM_P2
2021/04/14 00:07:57;;;;;;;9.63;6.50;;;;;;;2.72;63.58;100138.31;471388;1170;114359;-63
2021/04/14 00:18:01;;;;;;;7.70;5.25;;;;;;;2.41;64.71;100135.52;471152;1170;114251;-60
2021/04/14 00:28:07;;;;;;;5.70;5.17;;;;;;;2.15;66.12;100142.98;471667;1170;114372;-60
2021/04/14 00:38:12;;;;;;;5.93;4.77;;;;;;;2.01;66.55;100137.20;471326;1171;113925;-61
2021/04/14 00:48:17;;;;;;;4.35;3.95;;;;;;;1.96;68.00;100135.56;471813;1171;114299;-60
2021/04/14 00:58:22;;;;;;;5.95;4.80;;;;;;;1.99;68.21;100139.84;472343;1170;115037;-60
2021/04/14 01:08:26;;;;;;;5.87;4.80;;;;;;;1.94;68.29;100134.75;472952;1170;114160;-61
2021/04/14 01:18:32;;;;;;;5.77;4.13;;;;;;;1.94;68.58;100134.75;472603;1169;114411;-61
2021/04/14 01:28:39;;;;;;;8.43;5.43;;;;;;;1.85;69.22;100140.10;473025;1171;113806;-60
2021/04/14 01:38:42;;;;;;;8.07;5.57;;;;;;;1.73;69.53;100135.16;472318;1170;113832;-60
2021/04/14 01:48:46;;;;;;;4.93;4.37;;;;;;;1.65;70.29;100133.55;471667;1171;114312;-60
2021/04/14 01:58:50;;;;;;;8.80;4.80;;;;;;;1.48;70.24;100126.09;471221;1171;114095;-60
2021/04/14 02:08:54;;;;;;;8.70;5.13;;;;;;;1.36;70.82;100121.14;471412;1171;114233;-60
2021/04/14 02:18:58;;;;;;;6.40;5.00;;;;;;;1.20;70.94;100128.30;471436;1170;114691;-61
2021/04/14 02:29:02;;;;;;;9.10;5.33;;;;;;;1.01;70.97;100132.93;471213;1171;113864;-61
2021/04/14 02:39:09;;;;;;;7.73;6.77;;;;;;;0.88;72.17;100122.78;471658;1170;115228;-60
2021/04/14 02:49:13;;;;;;;7.87;6.57;;;;;;;0.83;72.03;100120.27;471327;1170;115740;-60
2021/04/14 02:59:17;;;;;;;10.80;8.73;;;;;;;0.73;72.24;100110.94;471279;1171;114712;-60
2021/04/14 03:09:21;;;;;;;9.10;6.30;;;;;;;0.73;73.30;100100.59;471649;1170;114057;-59
2021/04/14 03:19:24;;;;;;;7.83;5.03;;;;;;;0.75;73.29;100105.75;471433;1171;114734;-61
2021/04/14 03:29:28;;;;;;;8.07;5.93;;;;;;;0.73;73.77;100113.52;471352;1170;114300;-61
2021/04/14 03:39:32;;;;;;;6.17;5.07;;;;;;;0.80;74.03;100109.98;470913;1171;113801;-59
2021/04/14 03:49:35;;;;;;;7.77;4.70;;;;;;;0.81;74.32;100103.09;470862;1171;114388;-60
2021/04/14 03:59:39;;;;;;;6.10;4.33;;;;;;;0.80;74.32;100066.02;471313;1171;114679;-61
2021/04/14 04:09:43;;;;;;;6.65;4.55;;;;;;;0.72;74.50;100075.63;471132;1171;114490;-61
2021/04/14 04:19:48;;;;;;;5.00;2.90;;;;;;;0.69;74.40;100084.30;469923;1173;115389;-61
2021/04/14 04:29:52;;;;;;;3.80;2.40;;;;;;;0.74;74.39;100084.20;470981;1170;114169;-60
2021/04/14 04:39:56;;;;;;;6.27;2.90;;;;;;;0.77;75.11;100088.48;471431;1170;114989;-60
2021/04/14 04:50:01;;;;;;;3.70;1.95;;;;;;;0.87;74.75;100092.63;471411;1171;114623;-60
2021/04/14 05:00:07;;;;;;;4.00;2.80;;;;;;;1.00;74.37;100102.78;471255;1170;115479;-60
2021/04/14 05:10:14;;;;;;;8.30;3.97;;;;;;;1.25;74.87;100121.34;471044;1171;114306;-60
2021/04/14 05:20:19;;;;;;;6.33;3.57;;;;;;;1.43;74.87;100125.34;471893;1171;113949;-60
2021/04/14 05:30:24;;;;;;;8.33;3.17;;;;;;;1.62;74.87;100123.27;471942;1171;114337;-62
2021/04/14 05:40:28;;;;;;;6.15;4.00;;;;;;;1.76;75.00;100127.33;471908;1171;113927;-60
2021/04/14 05:50:32;;;;;;;6.80;6.10;;;;;;;1.82;75.06;100117.70;471561;1171;115803;-61
2021/04/14 06:00:36;;;;;;;13.60;8.30;;;;;;;1.99;74.66;100115.66;471039;1171;114287;-60
2021/04/14 06:10:40;;;;;;;12.97;7.50;;;;;;;2.09;74.42;100114.59;471044;1171;115003;-63
2021/04/14 06:20:43;;;;;;;11.67;8.20;;;;;;;2.28;74.39;100119.41;470014;1171;113987;-61
2021/04/14 06:30:47;;;;;;;14.20;6.40;;;;;;;2.37;73.91;100111.44;469844;1171;114406;-60
2021/04/14 06:41:11;;;;;;;9.97;7.17;;;;;;;2.49;73.67;100116.34;471108;1171;114305;-61
2021/04/14 06:51:25;;;;;;;5.50;4.10;;;;;;;2.64;73.68;100112.53;471449;1170;114470;-61
2021/04/14 07:01:35;;;;;;;10.35;4.40;;;;;;;2.59;74.02;100116.98;471529;1171;114253;-61
2021/04/14 07:11:40;;;;;;;11.80;5.95;;;;;;;2.85;73.65;100112.92;471882;1171;115977;-60
2021/04/14 07:21:52;;;;;;;10.95;8.20;;;;;;;3.08;73.87;100114.98;456242;1171;20002609;-59
2021/04/14 07:32:08;;;;;;;14.90;9.13;;;;;;;3.45;73.52;100104.55;471415;1171;114855;-59
2021/04/14 07:42:24;;;;;;;14.93;10.90;;;;;;;3.55;73.75;100097.35;471608;1171;114843;-61
2021/04/14 07:52:32;;;;;;;17.30;11.50;;;;;;;3.79;73.11;100088.88;471022;1170;114793;-60
2021/04/14 08:02:35;;;;;;;20.13;11.87;;;;;;;3.43;72.93;100082.97;471684;1171;114262;-60
2021/04/14 08:12:51;;;;;;;14.43;9.63;;;;;;;3.03;73.06;100083.09;474227;1171;114935;-60
2021/04/14 08:23:05;;;;;;;10.65;7.75;;;;;;;3.08;72.96;100077.78;471044;1171;114725;-61
2021/04/14 08:33:20;;;;;;;13.40;8.25;;;;;;;3.26;73.29;100079.05;471171;1170;115245;-60
2021/04/14 08:43:32;;;;;;;16.80;12.00;;;;;;;3.03;72.65;100074.47;471148;1170;114046;-60
2021/04/14 08:53:45;;;;;;;15.73;13.27;;;;;;;3.75;72.71;100069.09;471276;1170;116228;-60
2021/04/14 09:03:49;;;;;;;15.43;11.53;;;;;;;4.11;71.43;100072.42;471158;1171;114523;-61
2021/04/14 09:14:01;;;;;;;16.60;12.87;;;;;;;4.01;70.98;100064.05;471721;1170;115863;-60
2021/04/14 09:24:19;;;;;;;18.20;12.60;;;;;;;4.31;71.02;100059.68;471401;1169;114237;-59
2021/04/14 09:34:34;;;;;;;13.70;9.07;;;;;;;4.84;70.53;100046.77;472149;1171;114498;-60
2021/04/14 09:44:44;;;;;;;13.47;8.30;;;;;;;5.66;70.33;100019.64;471131;1171;114004;-60
2021/04/14 09:54:49;;;;;;;10.80;9.27;;;;;;;5.54;69.71;100019.19;471081;1170;114766;-61
2021/04/14 10:04:53;;;;;;;15.25;10.20;;;;;;;5.05;69.86;100012.22;471498;1170;114557;-60
2021/04/14 10:14:59;;;;;;;12.75;9.05;;;;;;;5.07;69.54;100001.73;471765;1170;115838;-60
2021/04/14 10:25:07;;;;;;;6.03;2.23;;;;;;;5.30;66.97;99994.86;471429;1171;114456;-61
2021/04/14 10:35:15;;;;;;;9.45;2.60;;;;;;;5.55;64.34;99983.58;471610;1169;113699;-61
2021/04/14 10:45:21;;;;;;;5.77;1.77;;;;;;;5.06;62.10;99997.43;471094;1170;114174;-61
2021/04/14 10:55:28;;;;;;;7.33;2.77;;;;;;;4.70;62.96;100001.25;469808;1171;114812;-60
2021/04/14 11:05:34;;;;;;;3.77;2.30;;;;;;;4.81;63.51;99985.27;469834;1170;114402;-61
2021/04/14 11:15:44;;;;;;;4.00;2.53;;;;;;;4.67;62.97;99996.13;469537;1171;114064;-60
2021/04/14 11:25:48;;;;;;;13.40;6.00;;;;;;;4.30;63.83;100010.32;471353;1171;113710;-61
2021/04/14 11:35:54;;;;;;;6.67;5.07;;;;;;;4.00;65.80;100019.02;471716;1170;114093;-60
2021/04/14 11:46:01;;;;;;;5.55;5.00;;;;;;;4.11;67.09;100026.50;471840;1171;113841;-61
2021/04/14 11:56:06;;;;;;;6.10;4.67;;;;;;;3.88;67.33;100020.25;471194;1171;114218;-59
2021/04/14 12:06:10;;;;;;;11.97;6.83;;;;;;;4.19;68.09;100029.70;471981;1171;113797;-61
2021/04/14 12:16:15;;;;;;;9.30;5.57;;;;;;;4.47;67.82;100013.25;471144;1171;114418;-58
2021/04/14 12:26:19;;;;;;;8.50;5.77;;;;;;;4.32;67.95;100019.78;472102;1171;114211;-59
2021/04/14 12:36:23;;;;;;;8.40;5.87;;;;;;;4.04;68.69;100022.38;471945;1170;114300;-61
2021/04/14 12:46:26;;;;;;;8.83;6.83;;;;;;;4.33;68.83;100012.84;471057;1171;115542;-60
2021/04/14 12:56:33;;;;;;;8.40;6.60;;;;;;;4.51;68.63;100014.01;472321;1170;114508;-62
2021/04/14 13:06:43;;;;;;;11.07;7.80;;;;;;;4.23;68.41;100009.66;473678;1170;114305;-63
2021/04/14 13:16:52;;;;;;;9.73;6.97;;;;;;;3.62;69.45;100005.41;471640;1171;114252;-62
2021/04/14 13:27:17;;;;;;;6.70;6.00;;;;;;;3.09;69.79;100012.02;455877;1171;20002423;-62
2021/04/14 13:37:24;;;;;;;8.97;5.37;;;;;;;2.99;70.58;100007.96;475581;1171;114809;-61
2021/04/14 13:47:32;;;;;;;;;;;;;;;3.15;71.43;100005.81;471295;1170;113808;-62
2021/04/14 13:57:40;;;;;;;9.90;6.75;;;;;;;3.40;71.45;99992.16;471461;1171;100101;-61
2021/04/14 14:07:50;;;;;;;8.40;5.43;;;;;;;3.43;71.75;99986.91;470769;1171;113661;-64
2021/04/14 14:17:54;;;;;;;10.77;7.30;;;;;;;3.00;71.83;100001.88;470969;1171;113651;-63
2021/04/14 14:27:59;;;;;;;11.00;7.80;;;;;;;2.89;72.35;100004.77;471309;1171;115061;-60
2021/04/14 14:38:12;;;;;;;6.85;5.40;;;;;;;2.81;72.80;99994.59;472081;1174;114426;-58
2021/04/14 14:48:28;;;;;;;7.55;5.55;;;;;;;2.75;73.18;99999.92;455466;1170;20002168;-62
2021/04/14 14:58:37;;;;;;;7.67;6.07;;;;;;;2.77;73.43;99999.00;471705;1171;114340;-61
2021/04/14 15:08:42;;;;;;;10.80;7.27;;;;;;;2.79;73.32;99997.21;471486;1171;114715;-62
2021/04/14 15:18:48;;;;;;;9.80;6.97;;;;;;;2.80;73.93;99996.31;470233;1171;114264;-61
2021/04/14 15:28:51;;;;;;;5.53;4.93;;;;;;;2.87;74.23;99998.77;470426;1171;114188;-62
2021/04/14 15:38:56;;;;;;;5.75;4.85;;;;;;;2.68;74.00;99998.39;471309;1171;114327;-61
2021/04/14 15:49:01;;;;;;;4.90;4.50;;;;;;;2.73;74.54;99999.11;471279;1170;113623;-61
2021/04/14 15:59:08;;;;;;;6.03;5.43;;;;;;;2.58;74.51;99993.42;471162;1170;114523;-62
2021/04/14 16:09:13;;;;;;;7.03;6.35;;;;;;;2.57;75.03;99991.72;471216;1171;114447;-61
2021/04/14 16:19:17;;;;;;;9.50;5.15;;;;;;;2.52;75.27;99989.23;471506;1171;114793;-62
2021/04/14 16:29:21;;;;;;;6.25;3.35;;;;;;;2.38;74.91;99991.32;471006;1171;113722;-61
2021/04/14 16:39:25;;;;;;;5.33;3.97;;;;;;;2.32;75.16;99996.63;471223;1171;114282;-60
2021/04/14 16:49:28;;;;;;;5.83;5.03;;;;;;;2.23;75.70;100001.13;471206;1170;113684;-63
2021/04/14 16:59:32;;;;;;;7.00;6.10;;;;;;;2.21;76.09;99999.48;471736;1170;113800;-62
2021/04/14 17:09:37;;;;;;;7.10;6.33;;;;;;;2.21;75.78;100000.32;471397;1170;114082;-62
2021/04/14 17:19:40;;;;;;;8.95;6.50;;;;;;;2.09;76.40;99996.29;471039;1170;114836;-63
2021/04/14 17:29:44;;;;;;;11.00;9.20;;;;;;;1.96;76.07;99997.42;471330;1171;114104;-62
2021/04/14 17:39:48;;;;;;;7.30;6.60;;;;;;;1.91;76.18;100004.45;470942;1169;114935;-62
2021/04/14 17:49:53;;;;;;;8.63;7.67;;;;;;;1.78;76.64;100012.48;471500;1171;113970;-62
2021/04/14 17:59:57;;;;;;;8.00;6.10;;;;;;;1.72;77.35;100004.83;471330;1170;114719;-63
2021/04/14 18:10:02;;;;;;;8.17;7.37;;;;;;;1.78;77.01;100020.25;457137;1171;20002473;-64
2021/04/14 18:20:08;;;;;;;9.87;7.87;;;;;;;1.74;77.57;100025.53;471633;1171;114574;-63
2021/04/14 18:30:14;;;;;;;7.48;6.13;;;;;;;1.65;77.30;100024.82;471668;1171;115099;-61
2021/04/14 18:40:21;;;;;;;5.50;4.55;;;;;;;1.63;77.66;100016.23;467763;1164;4713842;-62
2021/04/14 18:50:27;;;;;;;5.10;3.50;;;;;;;1.57;77.77;100024.14;471876;1171;114051;-62
2021/04/14 19:00:34;;;;;;;5.15;2.35;;;;;;;1.51;77.85;100027.70;471420;1171;114494;-62
2021/04/14 19:10:38;;;;;;;3.17;2.50;;;;;;;1.46;78.21;100018.33;471514;1170;114873;-61
2021/04/14 19:20:45;;;;;;;4.43;2.63;;;;;;;1.38;77.92;100011.55;471000;1170;115069;-62
2021/04/14 19:30:51;;;;;;;3.25;2.15;;;;;;;1.31;77.77;100011.70;471922;1171;114164;-61
2021/04/14 19:40:56;;;;;;;5.20;3.30;;;;;;;1.24;77.72;100016.14;471680;1171;113881;-60
2021/04/14 19:50:59;;;;;;;6.15;3.50;;;;;;;1.23;78.24;100015.28;470637;1171;114705;-61
2021/04/14 20:01:05;;;;;;;4.63;2.57;;;;;;;1.13;78.54;100007.73;471302;1171;114024;-61
2021/04/14 20:11:09;;;;;;;3.63;1.87;;;;;;;1.17;78.67;100012.83;463719;1171;10001409;-60
2021/04/14 20:21:14;;;;;;;7.35;2.50;;;;;;;1.22;78.62;99994.63;463611;1170;10001474;-63
2021/04/14 20:31:18;;;;;;;4.40;2.50;;;;;;;1.25;78.75;99994.56;472372;1170;115861;-62
2021/04/14 20:41:23;;;;;;;5.00;2.70;;;;;;;1.32;78.49;99996.13;471130;1171;114116;-62
2021/04/14 20:51:28;;;;;;;5.00;2.77;;;;;;;1.37;78.61;99989.15;470761;1171;115320;-63
2021/04/14 21:01:32;;;;;;;2.50;2.30;;;;;;;1.42;78.19;99989.06;471116;1171;114641;-63
2021/04/14 21:11:37;;;;;;;5.10;3.60;;;;;;;1.38;78.55;99974.46;471664;1170;114404;-65
2021/04/14 21:21:40;;;;;;;4.35;2.15;;;;;;;1.36;78.76;99979.69;471162;1171;113686;-63
2021/04/14 21:31:45;;;;;;;4.20;2.40;;;;;;;1.28;78.37;99978.14;471563;1171;115440;-63
2021/04/14 21:41:49;;;;;;;2.60;2.40;;;;;;;1.23;79.05;99975.64;470126;1171;114537;-64
2021/04/14 21:51:53;;;;;;;6.35;3.20;;;;;;;1.15;78.61;99968.00;471098;1170;115066;-61
2021/04/14 22:01:57;;;;;;;2.17;1.83;;;;;;;1.01;79.19;99965.70;471449;1170;113685;-62
2021/04/14 22:12:02;;;;;;;2.30;2.03;;;;;;;0.89;79.47;99969.34;471517;1171;114228;-62
2021/04/14 22:22:06;;;;;;;2.07;1.90;;;;;;;0.78;79.62;99959.20;471546;1170;114158;-62
2021/04/14 22:32:11;;;;;;;2.83;2.20;;;;;;;0.66;79.50;99952.51;471826;1170;113826;-62
2021/04/14 22:42:15;;;;;;;3.53;2.63;;;;;;;0.52;79.94;99941.56;471340;1171;113776;-66
2021/04/14 22:52:18;;;;;;;3.37;2.67;;;;;;;0.47;79.99;99936.47;470172;1171;113858;-62
2021/04/14 23:02:23;;;;;;;3.57;2.50;;;;;;;0.41;79.99;99924.50;469847;1171;113806;-59
2021/04/14 23:12:28;;;;;;;2.80;2.60;;;;;;;0.43;80.14;99918.45;477385;1170;113815;-65
2021/04/14 23:22:31;;;;;;;2.07;1.97;;;;;;;0.39;80.21;99912.48;471103;1170;113914;-59
2021/04/14 23:32:35;;;;;;;3.27;2.60;;;;;;;0.31;80.11;99904.87;471456;1171;114016;-59
2021/04/14 23:42:39;;;;;;;2.93;2.63;;;;;;;0.27;80.63;99900.64;471250;1171;114325;-59
2021/04/14 23:52:43;;;;;;;3.80;2.43;;;;;;;0.24;81.00;99896.38;472008;1171;114774;-59
